sensor_id;sensor_type;location;lat;lon;timestamp;P1;durP1;ratioP1;P2;durP2;ratioP2
14965;SDS011;7577;45.226;5.798;2023-05-17T00:01:46;5.77;;;4.47;;
14965;SDS011;7577;45.226;5.798;2023-05-17T00:04:17;5.40;;;4.13;;
14965;SDS011;7577;45.226;5.798;2023-05-17T00:06:54;5.57;;;4.00;;
14965;SDS011;7577;45.226;5.798;2023-05-17T00:09:25;6.80;;;4.77;;
14965;SDS011;7577;45.226;5.798;2023-05-17T00:11:55;4.70;;;3.80;;
14965;SDS011;7577;45.226;5.798;2023-05-17T00:14:25;5.20;;;4.00;;
14965;SDS011;7577;45.226;5.798;2023-05-17T00:16:55;4.93;;;3.50;;
14965;SDS011;7577;45.226;5.798;2023-05-17T00:19:26;5.77;;;4.27;;
14965;SDS011;7577;45.226;5.798;2023-05-17T00:22:04;4.63;;;3.93;;
14965;SDS011;7577;45.226;5.798;2023-05-17T00:24:34;5.23;;;3.83;;
14965;SDS011;7577;45.226;5.798;2023-05-17T00:27:11;5.13;;;4.07;;
14965;SDS011;7577;45.226;5.798;2023-05-17T00:29:42;5.23;;;3.87;;
14965;SDS011;7577;45.226;5.798;2023-05-17T00:32:12;5.30;;;3.93;;
14965;SDS011;7577;45.226;5.798;2023-05-17T00:34:49;5.60;;;3.63;;
14965;SDS011;7577;45.226;5.798;2023-05-17T00:37:20;3.97;;;3.50;;
14965;SDS011;7577;45.226;5.798;2023-05-17T00:39:50;5.23;;;3.63;;
14965;SDS011;7577;45.226;5.798;2023-05-17T00:42:20;4.27;;;3.40;;
14965;SDS011;7577;45.226;5.798;2023-05-17T00:44:50;4.80;;;4.20;;
14965;SDS011;7577;45.226;5.798;2023-05-17T00:47:20;4.53;;;3.43;;
14965;SDS011;7577;45.226;5.798;2023-05-17T00:49:50;3.97;;;3.40;;
14965;SDS011;7577;45.226;5.798;2023-05-17T00:52:21;4.83;;;3.40;;
14965;SDS011;7577;45.226;5.798;2023-05-17T00:54:51;4.20;;;3.37;;
14965;SDS011;7577;45.226;5.798;2023-05-17T00:57:30;5.13;;;3.30;;
14965;SDS011;7577;45.226;5.798;2023-05-17T01:00:00;4.53;;;3.47;;
14965;SDS011;7577;45.226;5.798;2023-05-17T01:02:40;4.53;;;2.97;;
14965;SDS011;7577;45.226;5.798;2023-05-17T01:05:11;3.33;;;2.87;;
14965;SDS011;7577;45.226;5.798;2023-05-17T01:07:41;3.93;;;2.90;;
14965;SDS011;7577;45.226;5.798;2023-05-17T01:10:11;3.57;;;3.13;;
14965;SDS011;7577;45.226;5.798;2023-05-17T01:12:45;3.77;;;2.87;;
14965;SDS011;7577;45.226;5.798;2023-05-17T01:15:22;3.93;;;2.90;;
14965;SDS011;7577;45.226;5.798;2023-05-17T01:18:01;3.30;;;2.67;;
14965;SDS011;7577;45.226;5.798;2023-05-17T01:20:28;3.37;;;2.77;;
14965;SDS011;7577;45.226;5.798;2023-05-17T01:23:06;3.30;;;2.97;;
14965;SDS011;7577;45.226;5.798;2023-05-17T01:25:49;2.93;;;2.60;;
14965;SDS011;7577;45.226;5.798;2023-05-17T01:28:22;3.30;;;2.60;;
14965;SDS011;7577;45.226;5.798;2023-05-17T01:30:53;3.93;;;2.40;;
14965;SDS011;7577;45.226;5.798;2023-05-17T01:33:26;5.80;;;2.70;;
14965;SDS011;7577;45.226;5.798;2023-05-17T01:35:57;3.63;;;2.60;;
14965;SDS011;7577;45.226;5.798;2023-05-17T01:38:27;3.83;;;2.60;;
14965;SDS011;7577;45.226;5.798;2023-05-17T01:41:00;3.27;;;2.63;;
14965;SDS011;7577;45.226;5.798;2023-05-17T01:43:33;3.70;;;2.47;;
14965;SDS011;7577;45.226;5.798;2023-05-17T01:46:06;2.50;;;2.20;;
14965;SDS011;7577;45.226;5.798;2023-05-17T01:48:48;3.90;;;2.50;;
14965;SDS011;7577;45.226;5.798;2023-05-17T01:51:20;3.00;;;2.10;;
14965;SDS011;7577;45.226;5.798;2023-05-17T01:53:54;2.90;;;2.13;;
14965;SDS011;7577;45.226;5.798;2023-05-17T01:56:26;3.93;;;2.80;;
14965;SDS011;7577;45.226;5.798;2023-05-17T01:59:07;4.07;;;2.60;;
14965;SDS011;7577;45.226;5.798;2023-05-17T02:01:40;3.07;;;2.27;;
14965;SDS011;7577;45.226;5.798;2023-05-17T02:04:13;3.50;;;2.43;;
14965;SDS011;7577;45.226;5.798;2023-05-17T02:06:53;4.00;;;2.40;;
14965;SDS011;7577;45.226;5.798;2023-05-17T02:09:23;3.33;;;2.23;;
14965;SDS011;7577;45.226;5.798;2023-05-17T02:12:05;2.20;;;2.00;;
14965;SDS011;7577;45.226;5.798;2023-05-17T02:14:36;2.83;;;2.10;;
14965;SDS011;7577;45.226;5.798;2023-05-17T02:17:13;2.70;;;2.17;;
14965;SDS011;7577;45.226;5.798;2023-05-17T02:19:44;3.30;;;1.90;;
14965;SDS011;7577;45.226;5.798;2023-05-17T02:22:14;2.70;;;2.00;;
14965;SDS011;7577;45.226;5.798;2023-05-17T02:24:44;3.40;;;2.30;;
14965;SDS011;7577;45.226;5.798;2023-05-17T02:27:15;2.50;;;1.83;;
14965;SDS011;7577;45.226;5.798;2023-05-17T02:29:45;2.87;;;2.03;;
14965;SDS011;7577;45.226;5.798;2023-05-17T02:32:15;1.97;;;1.77;;
14965;SDS011;7577;45.226;5.798;2023-05-17T02:34:46;2.30;;;2.10;;
14965;SDS011;7577;45.226;5.798;2023-05-17T02:37:16;2.07;;;1.87;;
14965;SDS011;7577;45.226;5.798;2023-05-17T02:39:46;2.63;;;1.90;;
14965;SDS011;7577;45.226;5.798;2023-05-17T02:42:16;3.00;;;2.00;;
14965;SDS011;7577;45.226;5.798;2023-05-17T02:44:46;2.77;;;1.77;;
14965;SDS011;7577;45.226;5.798;2023-05-17T02:47:18;2.53;;;1.90;;
14965;SDS011;7577;45.226;5.798;2023-05-17T02:49:48;2.13;;;1.70;;
14965;SDS011;7577;45.226;5.798;2023-05-17T02:52:26;2.50;;;1.87;;
14965;SDS011;7577;45.226;5.798;2023-05-17T02:54:56;2.53;;;1.60;;
14965;SDS011;7577;45.226;5.798;2023-05-17T02:57:33;2.63;;;1.90;;
14965;SDS011;7577;45.226;5.798;2023-05-17T03:00:05;2.53;;;1.70;;
14965;SDS011;7577;45.226;5.798;2023-05-17T03:02:36;2.90;;;1.63;;
14965;SDS011;7577;45.226;5.798;2023-05-17T03:05:14;2.80;;;2.03;;
14965;SDS011;7577;45.226;5.798;2023-05-17T03:07:44;3.83;;;1.90;;
14965;SDS011;7577;45.226;5.798;2023-05-17T03:10:22;3.20;;;1.90;;
14965;SDS011;7577;45.226;5.798;2023-05-17T03:12:52;1.87;;;1.63;;
14965;SDS011;7577;45.226;5.798;2023-05-17T03:15:23;2.77;;;1.40;;
14965;SDS011;7577;45.226;5.798;2023-05-17T03:18:04;2.27;;;1.60;;
14965;SDS011;7577;45.226;5.798;2023-05-17T03:20:34;2.17;;;1.50;;
14965;SDS011;7577;45.226;5.798;2023-05-17T03:23:04;3.10;;;1.60;;
14965;SDS011;7577;45.226;5.798;2023-05-17T03:25:42;2.53;;;1.50;;
14965;SDS011;7577;45.226;5.798;2023-05-17T03:28:12;2.20;;;1.37;;
14965;SDS011;7577;45.226;5.798;2023-05-17T03:30:42;2.30;;;1.37;;
14965;SDS011;7577;45.226;5.798;2023-05-17T03:33:12;2.77;;;1.73;;
14965;SDS011;7577;45.226;5.798;2023-05-17T03:35:42;2.33;;;1.43;;
14965;SDS011;7577;45.226;5.798;2023-05-17T03:38:13;2.37;;;1.73;;
14965;SDS011;7577;45.226;5.798;2023-05-17T03:40:43;2.23;;;1.30;;
14965;SDS011;7577;45.226;5.798;2023-05-17T03:43:21;1.97;;;1.60;;
14965;SDS011;7577;45.226;5.798;2023-05-17T03:45:51;2.17;;;1.70;;
14965;SDS011;7577;45.226;5.798;2023-05-17T03:48:31;2.40;;;1.37;;
14965;SDS011;7577;45.226;5.798;2023-05-17T03:51:01;2.47;;;1.60;;
14965;SDS011;7577;45.226;5.798;2023-05-17T03:53:39;2.23;;;1.20;;
14965;SDS011;7577;45.226;5.798;2023-05-17T03:56:09;1.50;;;1.40;;
14965;SDS011;7577;45.226;5.798;2023-05-17T03:58:47;1.60;;;1.27;;
14965;SDS011;7577;45.226;5.798;2023-05-17T04:01:17;3.07;;;1.10;;
14965;SDS011;7577;45.226;5.798;2023-05-17T04:03:48;2.73;;;1.40;;
14965;SDS011;7577;45.226;5.798;2023-05-17T04:06:25;2.43;;;1.23;;
14965;SDS011;7577;45.226;5.798;2023-05-17T04:08:56;1.70;;;1.10;;
14965;SDS011;7577;45.226;5.798;2023-05-17T04:11:26;2.63;;;1.20;;
14965;SDS011;7577;45.226;5.798;2023-05-17T04:14:04;1.77;;;1.20;;
14965;SDS011;7577;45.226;5.798;2023-05-17T04:16:34;2.03;;;1.30;;
14965;SDS011;7577;45.226;5.798;2023-05-17T04:19:04;2.87;;;1.40;;
14965;SDS011;7577;45.226;5.798;2023-05-17T04:21:34;1.73;;;1.30;;
14965;SDS011;7577;45.226;5.798;2023-05-17T04:24:05;4.43;;;1.40;;
14965;SDS011;7577;45.226;5.798;2023-05-17T04:26:36;2.80;;;1.40;;
14965;SDS011;7577;45.226;5.798;2023-05-17T04:29:06;2.40;;;1.10;;
14965;SDS011;7577;45.226;5.798;2023-05-17T04:31:36;3.67;;;1.50;;
14965;SDS011;7577;45.226;5.798;2023-05-17T04:34:06;2.03;;;1.33;;
14965;SDS011;7577;45.226;5.798;2023-05-17T04:36:36;1.60;;;1.20;;
14965;SDS011;7577;45.226;5.798;2023-05-17T04:39:06;3.77;;;1.40;;
14965;SDS011;7577;45.226;5.798;2023-05-17T04:41:36;2.20;;;1.20;;
14965;SDS011;7577;45.226;5.798;2023-05-17T04:44:06;2.50;;;1.00;;
14965;SDS011;7577;45.226;5.798;2023-05-17T04:46:44;1.93;;;1.10;;
14965;SDS011;7577;45.226;5.798;2023-05-17T04:49:14;2.37;;;1.33;;
14965;SDS011;7577;45.226;5.798;2023-05-17T04:51:45;1.63;;;1.00;;
14965;SDS011;7577;45.226;5.798;2023-05-17T04:54:15;1.30;;;1.10;;
14965;SDS011;7577;45.226;5.798;2023-05-17T04:56:45;3.83;;;1.40;;
14965;SDS011;7577;45.226;5.798;2023-05-17T04:59:15;2.13;;;0.93;;
14965;SDS011;7577;45.226;5.798;2023-05-17T05:01:52;2.67;;;1.20;;
14965;SDS011;7577;45.226;5.798;2023-05-17T05:04:23;2.90;;;1.10;;
14965;SDS011;7577;45.226;5.798;2023-05-17T05:06:53;2.10;;;1.27;;
14965;SDS011;7577;45.226;5.798;2023-05-17T05:09:23;3.53;;;1.27;;
14965;SDS011;7577;45.226;5.798;2023-05-17T05:11:53;2.87;;;1.50;;
14965;SDS011;7577;45.226;5.798;2023-05-17T05:14:23;2.03;;;1.27;;
14965;SDS011;7577;45.226;5.798;2023-05-17T05:16:53;1.97;;;1.00;;
14965;SDS011;7577;45.226;5.798;2023-05-17T05:19:23;1.93;;;0.93;;
14965;SDS011;7577;45.226;5.798;2023-05-17T05:22:01;1.87;;;1.00;;
14965;SDS011;7577;45.226;5.798;2023-05-17T05:24:31;3.33;;;1.10;;
14965;SDS011;7577;45.226;5.798;2023-05-17T05:27:02;3.57;;;1.30;;
14965;SDS011;7577;45.226;5.798;2023-05-17T05:29:43;1.70;;;1.03;;
14965;SDS011;7577;45.226;5.798;2023-05-17T05:32:13;1.40;;;0.90;;
14965;SDS011;7577;45.226;5.798;2023-05-17T05:34:43;2.77;;;1.20;;
14965;SDS011;7577;45.226;5.798;2023-05-17T05:37:13;1.20;;;1.10;;
14965;SDS011;7577;45.226;5.798;2023-05-17T05:39:45;2.63;;;1.17;;
14965;SDS011;7577;45.226;5.798;2023-05-17T05:42:15;1.37;;;0.80;;
14965;SDS011;7577;45.226;5.798;2023-05-17T05:44:46;1.90;;;1.03;;
14965;SDS011;7577;45.226;5.798;2023-05-17T05:47:16;2.90;;;1.20;;
14965;SDS011;7577;45.226;5.798;2023-05-17T05:49:53;5.30;;;1.33;;
14965;SDS011;7577;45.226;5.798;2023-05-17T05:52:24;3.17;;;1.00;;
14965;SDS011;7577;45.226;5.798;2023-05-17T05:54:54;2.20;;;1.10;;
14965;SDS011;7577;45.226;5.798;2023-05-17T05:57:24;2.40;;;1.20;;
14965;SDS011;7577;45.226;5.798;2023-05-17T05:59:54;2.63;;;1.30;;
14965;SDS011;7577;45.226;5.798;2023-05-17T06:02:25;2.40;;;1.00;;
14965;SDS011;7577;45.226;5.798;2023-05-17T06:04:56;3.23;;;1.03;;
14965;SDS011;7577;45.226;5.798;2023-05-17T06:07:26;3.23;;;0.90;;
14965;SDS011;7577;45.226;5.798;2023-05-17T06:09:57;1.80;;;1.07;;
14965;SDS011;7577;45.226;5.798;2023-05-17T06:12:27;2.13;;;1.00;;
14965;SDS011;7577;45.226;5.798;2023-05-17T06:14:58;1.97;;;1.13;;
14965;SDS011;7577;45.226;5.798;2023-05-17T06:17:28;3.57;;;1.47;;
14965;SDS011;7577;45.226;5.798;2023-05-17T06:19:59;2.20;;;1.07;;
14965;SDS011;7577;45.226;5.798;2023-05-17T06:22:29;3.20;;;1.30;;
14965;SDS011;7577;45.226;5.798;2023-05-17T06:25:00;1.80;;;1.07;;
14965;SDS011;7577;45.226;5.798;2023-05-17T06:27:30;2.50;;;1.10;;
14965;SDS011;7577;45.226;5.798;2023-05-17T06:30:01;1.93;;;1.00;;
14965;SDS011;7577;45.226;5.798;2023-05-17T06:32:32;2.20;;;1.20;;
14965;SDS011;7577;45.226;5.798;2023-05-17T06:35:10;3.60;;;1.23;;
14965;SDS011;7577;45.226;5.798;2023-05-17T06:37:40;2.30;;;1.10;;
14965;SDS011;7577;45.226;5.798;2023-05-17T06:40:18;2.70;;;1.00;;
14965;SDS011;7577;45.226;5.798;2023-05-17T06:42:48;1.37;;;1.07;;
14965;SDS011;7577;45.226;5.798;2023-05-17T06:45:29;3.03;;;1.30;;
14965;SDS011;7577;45.226;5.798;2023-05-17T06:47:59;1.53;;;1.00;;
14965;SDS011;7577;45.226;5.798;2023-05-17T06:50:37;2.20;;;0.93;;
14965;SDS011;7577;45.226;5.798;2023-05-17T06:53:07;1.70;;;0.90;;
14965;SDS011;7577;45.226;5.798;2023-05-17T06:55:45;2.90;;;1.10;;
14965;SDS011;7577;45.226;5.798;2023-05-17T06:58:15;2.87;;;1.10;;
14965;SDS011;7577;45.226;5.798;2023-05-17T07:00:45;2.70;;;0.93;;
14965;SDS011;7577;45.226;5.798;2023-05-17T07:03:23;1.37;;;1.00;;
14965;SDS011;7577;45.226;5.798;2023-05-17T07:05:54;3.27;;;1.00;;
14965;SDS011;7577;45.226;5.798;2023-05-17T07:08:24;1.77;;;1.10;;
14965;SDS011;7577;45.226;5.798;2023-05-17T07:10:55;1.43;;;0.80;;
14965;SDS011;7577;45.226;5.798;2023-05-17T07:13:25;1.80;;;0.87;;
14965;SDS011;7577;45.226;5.798;2023-05-17T07:16:07;1.37;;;1.07;;
14965;SDS011;7577;45.226;5.798;2023-05-17T07:18:37;3.03;;;0.90;;
14965;SDS011;7577;45.226;5.798;2023-05-17T07:21:07;2.47;;;1.03;;
14965;SDS011;7577;45.226;5.798;2023-05-17T07:23:38;1.70;;;1.00;;
14965;SDS011;7577;45.226;5.798;2023-05-17T07:26:19;1.50;;;1.20;;
14965;SDS011;7577;45.226;5.798;2023-05-17T07:28:50;1.50;;;0.90;;
14965;SDS011;7577;45.226;5.798;2023-05-17T07:31:20;1.90;;;1.27;;
14965;SDS011;7577;45.226;5.798;2023-05-17T07:33:58;1.60;;;1.00;;
14965;SDS011;7577;45.226;5.798;2023-05-17T07:36:28;4.87;;;1.20;;
14965;SDS011;7577;45.226;5.798;2023-05-17T07:38:59;2.97;;;1.00;;
14965;SDS011;7577;45.226;5.798;2023-05-17T07:41:29;2.87;;;1.17;;
14965;SDS011;7577;45.226;5.798;2023-05-17T07:44:00;1.40;;;0.80;;
14965;SDS011;7577;45.226;5.798;2023-05-17T07:46:30;4.57;;;1.10;;
14965;SDS011;7577;45.226;5.798;2023-05-17T07:49:00;4.47;;;1.40;;
14965;SDS011;7577;45.226;5.798;2023-05-17T07:51:30;6.13;;;1.20;;
14965;SDS011;7577;45.226;5.798;2023-05-17T07:54:00;1.90;;;1.03;;
14965;SDS011;7577;45.226;5.798;2023-05-17T07:56:30;4.60;;;1.50;;
14965;SDS011;7577;45.226;5.798;2023-05-17T07:59:00;3.13;;;1.10;;
14965;SDS011;7577;45.226;5.798;2023-05-17T08:01:30;3.43;;;1.47;;
14965;SDS011;7577;45.226;5.798;2023-05-17T08:04:00;2.40;;;1.10;;
14965;SDS011;7577;45.226;5.798;2023-05-17T08:06:31;4.23;;;1.10;;
14965;SDS011;7577;45.226;5.798;2023-05-17T08:09:01;3.97;;;1.00;;
14965;SDS011;7577;45.226;5.798;2023-05-17T08:11:31;1.43;;;0.90;;
14965;SDS011;7577;45.226;5.798;2023-05-17T08:14:01;3.13;;;1.03;;
14965;SDS011;7577;45.226;5.798;2023-05-17T08:16:32;2.87;;;1.10;;
14965;SDS011;7577;45.226;5.798;2023-05-17T08:19:11;3.20;;;0.93;;
14965;SDS011;7577;45.226;5.798;2023-05-17T08:21:42;5.33;;;1.10;;
14965;SDS011;7577;45.226;5.798;2023-05-17T08:24:15;2.57;;;1.00;;
14965;SDS011;7577;45.226;5.798;2023-05-17T08:26:54;3.37;;;1.00;;
14965;SDS011;7577;45.226;5.798;2023-05-17T08:29:24;5.23;;;1.10;;
14965;SDS011;7577;45.226;5.798;2023-05-17T08:31:54;2.17;;;1.00;;
14965;SDS011;7577;45.226;5.798;2023-05-17T08:34:25;1.77;;;1.17;;
14965;SDS011;7577;45.226;5.798;2023-05-17T08:36:55;2.37;;;1.20;;
14965;SDS011;7577;45.226;5.798;2023-05-17T08:39:25;2.20;;;1.00;;
14965;SDS011;7577;45.226;5.798;2023-05-17T08:42:07;2.13;;;1.00;;
14965;SDS011;7577;45.226;5.798;2023-05-17T08:44:37;2.03;;;0.80;;
14965;SDS011;7577;45.226;5.798;2023-05-17T08:47:08;2.67;;;1.10;;
14965;SDS011;7577;45.226;5.798;2023-05-17T08:49:40;1.80;;;1.00;;
14965;SDS011;7577;45.226;5.798;2023-05-17T08:52:18;4.17;;;1.10;;
14965;SDS011;7577;45.226;5.798;2023-05-17T08:54:50;2.20;;;1.00;;
14965;SDS011;7577;45.226;5.798;2023-05-17T08:57:20;4.20;;;1.20;;
14965;SDS011;7577;45.226;5.798;2023-05-17T08:59:52;2.20;;;0.83;;
14965;SDS011;7577;45.226;5.798;2023-05-17T09:02:23;2.23;;;1.13;;
14965;SDS011;7577;45.226;5.798;2023-05-17T09:04:54;3.17;;;1.03;;
14965;SDS011;7577;45.226;5.798;2023-05-17T09:07:26;3.53;;;1.20;;
14965;SDS011;7577;45.226;5.798;2023-05-17T09:09:56;2.43;;;1.03;;
14965;SDS011;7577;45.226;5.798;2023-05-17T09:12:26;2.70;;;1.10;;
14965;SDS011;7577;45.226;5.798;2023-05-17T09:15:14;5.23;;;1.23;;
14965;SDS011;7577;45.226;5.798;2023-05-17T09:17:50;2.43;;;1.20;;
14965;SDS011;7577;45.226;5.798;2023-05-17T09:20:21;4.23;;;1.40;;
14965;SDS011;7577;45.226;5.798;2023-05-17T09:22:54;2.67;;;1.10;;
14965;SDS011;7577;45.226;5.798;2023-05-17T09:25:32;5.43;;;1.17;;
14965;SDS011;7577;45.226;5.798;2023-05-17T09:28:04;10.20;;;1.50;;
14965;SDS011;7577;45.226;5.798;2023-05-17T09:30:35;4.10;;;1.47;;
14965;SDS011;7577;45.226;5.798;2023-05-17T09:33:06;2.80;;;1.07;;
14965;SDS011;7577;45.226;5.798;2023-05-17T09:35:38;5.17;;;1.47;;
14965;SDS011;7577;45.226;5.798;2023-05-17T09:38:16;3.57;;;1.13;;
14965;SDS011;7577;45.226;5.798;2023-05-17T09:40:49;5.97;;;1.40;;
14965;SDS011;7577;45.226;5.798;2023-05-17T09:43:22;2.93;;;0.97;;
14965;SDS011;7577;45.226;5.798;2023-05-17T09:45:56;2.67;;;1.20;;
14965;SDS011;7577;45.226;5.798;2023-05-17T09:48:26;3.13;;;1.27;;
14965;SDS011;7577;45.226;5.798;2023-05-17T09:50:57;3.30;;;1.30;;
14965;SDS011;7577;45.226;5.798;2023-05-17T09:53:28;3.50;;;1.40;;
14965;SDS011;7577;45.226;5.798;2023-05-17T09:55:59;3.37;;;1.23;;
14965;SDS011;7577;45.226;5.798;2023-05-17T09:58:32;4.10;;;1.00;;
14965;SDS011;7577;45.226;5.798;2023-05-17T10:01:04;3.90;;;1.33;;
14965;SDS011;7577;45.226;5.798;2023-05-17T10:03:37;1.70;;;1.03;;
14965;SDS011;7577;45.226;5.798;2023-05-17T10:06:08;3.03;;;1.27;;
14965;SDS011;7577;45.226;5.798;2023-05-17T10:08:39;2.97;;;1.00;;
14965;SDS011;7577;45.226;5.798;2023-05-17T10:11:12;1.93;;;1.00;;
14965;SDS011;7577;45.226;5.798;2023-05-17T10:13:43;2.17;;;1.30;;
14965;SDS011;7577;45.226;5.798;2023-05-17T10:16:15;2.43;;;1.20;;
14965;SDS011;7577;45.226;5.798;2023-05-17T10:18:48;2.00;;;1.20;;
14965;SDS011;7577;45.226;5.798;2023-05-17T10:21:19;2.77;;;1.00;;
14965;SDS011;7577;45.226;5.798;2023-05-17T10:23:51;2.67;;;1.10;;
14965;SDS011;7577;45.226;5.798;2023-05-17T10:26:22;2.53;;;1.17;;
14965;SDS011;7577;45.226;5.798;2023-05-17T10:28:55;1.87;;;1.10;;
14965;SDS011;7577;45.226;5.798;2023-05-17T10:31:34;2.63;;;1.10;;
14965;SDS011;7577;45.226;5.798;2023-05-17T10:34:04;2.90;;;1.10;;
14965;SDS011;7577;45.226;5.798;2023-05-17T10:36:36;2.17;;;0.90;;
14965;SDS011;7577;45.226;5.798;2023-05-17T10:39:08;1.43;;;0.90;;
14965;SDS011;7577;45.226;5.798;2023-05-17T10:41:39;1.80;;;1.10;;
14965;SDS011;7577;45.226;5.798;2023-05-17T10:44:12;3.00;;;1.20;;
14965;SDS011;7577;45.226;5.798;2023-05-17T10:46:50;2.83;;;1.27;;
14965;SDS011;7577;45.226;5.798;2023-05-17T10:49:23;2.17;;;1.10;;
14965;SDS011;7577;45.226;5.798;2023-05-17T10:51:55;1.97;;;0.90;;
14965;SDS011;7577;45.226;5.798;2023-05-17T10:54:35;2.47;;;1.23;;
14965;SDS011;7577;45.226;5.798;2023-05-17T10:57:17;3.87;;;1.33;;
14965;SDS011;7577;45.226;5.798;2023-05-17T10:59:57;3.20;;;1.30;;
14965;SDS011;7577;45.226;5.798;2023-05-17T11:02:30;2.87;;;0.90;;
14965;SDS011;7577;45.226;5.798;2023-05-17T11:05:07;3.30;;;1.17;;
14965;SDS011;7577;45.226;5.798;2023-05-17T11:07:51;3.60;;;1.10;;
14965;SDS011;7577;45.226;5.798;2023-05-17T11:10:23;3.57;;;1.00;;
14965;SDS011;7577;45.226;5.798;2023-05-17T11:13:01;3.17;;;1.23;;
14965;SDS011;7577;45.226;5.798;2023-05-17T11:15:34;8.33;;;1.23;;
14965;SDS011;7577;45.226;5.798;2023-05-17T11:18:12;3.20;;;1.10;;
14965;SDS011;7577;45.226;5.798;2023-05-17T11:20:43;3.70;;;1.00;;
14965;SDS011;7577;45.226;5.798;2023-05-17T11:23:16;2.43;;;0.97;;
14965;SDS011;7577;45.226;5.798;2023-05-17T11:25:47;6.87;;;1.43;;
14965;SDS011;7577;45.226;5.798;2023-05-17T11:28:19;2.67;;;1.00;;
14965;SDS011;7577;45.226;5.798;2023-05-17T11:30:50;3.87;;;1.10;;
14965;SDS011;7577;45.226;5.798;2023-05-17T11:33:36;3.10;;;1.37;;
14965;SDS011;7577;45.226;5.798;2023-05-17T11:36:13;4.40;;;1.07;;
14965;SDS011;7577;45.226;5.798;2023-05-17T11:38:49;1.83;;;0.80;;
14965;SDS011;7577;45.226;5.798;2023-05-17T11:41:29;3.93;;;1.00;;
14965;SDS011;7577;45.226;5.798;2023-05-17T11:44:00;2.60;;;1.10;;
14965;SDS011;7577;45.226;5.798;2023-05-17T11:46:31;3.47;;;1.00;;
14965;SDS011;7577;45.226;5.798;2023-05-17T11:49:01;3.13;;;1.20;;
14965;SDS011;7577;45.226;5.798;2023-05-17T11:51:34;3.23;;;1.13;;
14965;SDS011;7577;45.226;5.798;2023-05-17T11:54:05;2.33;;;1.13;;
14965;SDS011;7577;45.226;5.798;2023-05-17T11:56:42;3.63;;;1.20;;
14965;SDS011;7577;45.226;5.798;2023-05-17T11:59:18;1.73;;;1.00;;
14965;SDS011;7577;45.226;5.798;2023-05-17T12:01:49;1.47;;;1.00;;
14965;SDS011;7577;45.226;5.798;2023-05-17T12:04:27;3.03;;;1.03;;
14965;SDS011;7577;45.226;5.798;2023-05-17T12:06:57;2.77;;;1.03;;
14965;SDS011;7577;45.226;5.798;2023-05-17T12:09:27;2.40;;;1.00;;
14965;SDS011;7577;45.226;5.798;2023-05-17T12:11:58;4.03;;;1.13;;
14965;SDS011;7577;45.226;5.798;2023-05-17T12:14:30;2.40;;;0.90;;
14965;SDS011;7577;45.226;5.798;2023-05-17T12:17:00;1.83;;;0.90;;
14965;SDS011;7577;45.226;5.798;2023-05-17T12:19:34;3.50;;;1.10;;
14965;SDS011;7577;45.226;5.798;2023-05-17T12:22:07;2.13;;;1.00;;
14965;SDS011;7577;45.226;5.798;2023-05-17T12:24:40;2.87;;;1.13;;
14965;SDS011;7577;45.226;5.798;2023-05-17T12:27:11;1.83;;;1.10;;
14965;SDS011;7577;45.226;5.798;2023-05-17T12:29:41;1.80;;;0.97;;
14965;SDS011;7577;45.226;5.798;2023-05-17T12:32:20;2.00;;;1.00;;
14965;SDS011;7577;45.226;5.798;2023-05-17T12:34:51;1.73;;;1.00;;
14965;SDS011;7577;45.226;5.798;2023-05-17T12:37:22;2.03;;;1.00;;
14965;SDS011;7577;45.226;5.798;2023-05-17T12:39:52;3.03;;;1.20;;
14965;SDS011;7577;45.226;5.798;2023-05-17T12:42:24;1.93;;;0.90;;
14965;SDS011;7577;45.226;5.798;2023-05-17T12:44:55;1.50;;;0.90;;
14965;SDS011;7577;45.226;5.798;2023-05-17T12:47:30;2.17;;;0.90;;
14965;SDS011;7577;45.226;5.798;2023-05-17T12:50:00;2.07;;;0.93;;
14965;SDS011;7577;45.226;5.798;2023-05-17T12:52:35;2.40;;;1.00;;
14965;SDS011;7577;45.226;5.798;2023-05-17T12:55:13;2.43;;;1.10;;
14965;SDS011;7577;45.226;5.798;2023-05-17T12:57:48;1.90;;;1.10;;
14965;SDS011;7577;45.226;5.798;2023-05-17T13:00:26;2.13;;;0.93;;
14965;SDS011;7577;45.226;5.798;2023-05-17T13:02:56;1.93;;;1.13;;
14965;SDS011;7577;45.226;5.798;2023-05-17T13:05:34;2.13;;;0.80;;
14965;SDS011;7577;45.226;5.798;2023-05-17T13:08:18;2.13;;;1.07;;
14965;SDS011;7577;45.226;5.798;2023-05-17T13:10:50;1.73;;;1.10;;
14965;SDS011;7577;45.226;5.798;2023-05-17T13:13:20;2.20;;;0.90;;
14965;SDS011;7577;45.226;5.798;2023-05-17T13:15:50;3.07;;;0.90;;
14965;SDS011;7577;45.226;5.798;2023-05-17T13:18:20;1.27;;;0.80;;
14965;SDS011;7577;45.226;5.798;2023-05-17T13:20:51;1.40;;;1.00;;
14965;SDS011;7577;45.226;5.798;2023-05-17T13:26:05;4.70;;;1.03;;
14965;SDS011;7577;45.226;5.798;2023-05-17T13:28:35;3.17;;;0.93;;
14965;SDS011;7577;45.226;5.798;2023-05-17T13:31:06;1.30;;;0.87;;
14965;SDS011;7577;45.226;5.798;2023-05-17T13:33:37;2.00;;;1.13;;
14965;SDS011;7577;45.226;5.798;2023-05-17T13:36:08;2.63;;;0.90;;
14965;SDS011;7577;45.226;5.798;2023-05-17T13:38:38;2.60;;;1.10;;
14965;SDS011;7577;45.226;5.798;2023-05-17T13:41:09;1.63;;;1.13;;
14965;SDS011;7577;45.226;5.798;2023-05-17T13:43:39;2.80;;;1.33;;
14965;SDS011;7577;45.226;5.798;2023-05-17T13:46:09;2.43;;;1.17;;
14965;SDS011;7577;45.226;5.798;2023-05-17T13:48:47;1.90;;;1.00;;
14965;SDS011;7577;45.226;5.798;2023-05-17T13:51:17;1.50;;;0.80;;
14965;SDS011;7577;45.226;5.798;2023-05-17T13:53:47;2.07;;;0.80;;
14965;SDS011;7577;45.226;5.798;2023-05-17T13:56:18;2.10;;;0.90;;
14965;SDS011;7577;45.226;5.798;2023-05-17T13:58:49;1.20;;;1.07;;
14965;SDS011;7577;45.226;5.798;2023-05-17T14:01:19;2.00;;;1.10;;
14965;SDS011;7577;45.226;5.798;2023-05-17T14:03:51;1.93;;;0.80;;
14965;SDS011;7577;45.226;5.798;2023-05-17T14:06:21;1.43;;;1.07;;
14965;SDS011;7577;45.226;5.798;2023-05-17T14:08:51;1.60;;;0.80;;
14965;SDS011;7577;45.226;5.798;2023-05-17T14:11:23;2.27;;;1.07;;
14965;SDS011;7577;45.226;5.798;2023-05-17T14:13:53;3.33;;;1.10;;
14965;SDS011;7577;45.226;5.798;2023-05-17T14:16:23;4.07;;;1.20;;
14965;SDS011;7577;45.226;5.798;2023-05-17T14:18:53;1.93;;;1.17;;
14965;SDS011;7577;45.226;5.798;2023-05-17T14:21:31;8.23;;;2.17;;
14965;SDS011;7577;45.226;5.798;2023-05-17T14:24:01;6.30;;;2.30;;
14965;SDS011;7577;45.226;5.798;2023-05-17T14:26:40;7.17;;;2.30;;
14965;SDS011;7577;45.226;5.798;2023-05-17T14:29:10;5.00;;;2.03;;
14965;SDS011;7577;45.226;5.798;2023-05-17T14:31:40;6.67;;;2.10;;
14965;SDS011;7577;45.226;5.798;2023-05-17T14:34:10;7.30;;;1.83;;
14965;SDS011;7577;45.226;5.798;2023-05-17T14:36:40;5.63;;;1.63;;
14965;SDS011;7577;45.226;5.798;2023-05-17T14:39:10;3.07;;;1.50;;
14965;SDS011;7577;45.226;5.798;2023-05-17T14:41:41;4.90;;;1.40;;
14965;SDS011;7577;45.226;5.798;2023-05-17T14:44:11;4.13;;;1.30;;
14965;SDS011;7577;45.226;5.798;2023-05-17T14:46:41;4.80;;;1.60;;
14965;SDS011;7577;45.226;5.798;2023-05-17T14:49:11;3.47;;;1.40;;
14965;SDS011;7577;45.226;5.798;2023-05-17T14:51:41;2.20;;;1.27;;
14965;SDS011;7577;45.226;5.798;2023-05-17T14:54:12;4.13;;;1.40;;
14965;SDS011;7577;45.226;5.798;2023-05-17T14:56:42;4.43;;;1.53;;
14965;SDS011;7577;45.226;5.798;2023-05-17T14:59:13;5.70;;;1.60;;
14965;SDS011;7577;45.226;5.798;2023-05-17T15:01:44;3.30;;;1.47;;
14965;SDS011;7577;45.226;5.798;2023-05-17T15:04:14;3.63;;;1.40;;
14965;SDS011;7577;45.226;5.798;2023-05-17T15:06:44;3.93;;;1.73;;
14965;SDS011;7577;45.226;5.798;2023-05-17T15:09:16;4.17;;;1.50;;
14965;SDS011;7577;45.226;5.798;2023-05-17T15:11:48;6.10;;;1.73;;
14965;SDS011;7577;45.226;5.798;2023-05-17T15:14:28;3.60;;;1.40;;
14965;SDS011;7577;45.226;5.798;2023-05-17T15:16:58;3.67;;;1.37;;
14965;SDS011;7577;45.226;5.798;2023-05-17T15:19:29;5.43;;;1.97;;
14965;SDS011;7577;45.226;5.798;2023-05-17T15:22:07;1.67;;;1.20;;
14965;SDS011;7577;45.226;5.798;2023-05-17T15:24:37;3.30;;;1.43;;
14965;SDS011;7577;45.226;5.798;2023-05-17T15:27:07;4.47;;;1.43;;
14965;SDS011;7577;45.226;5.798;2023-05-17T15:29:40;2.80;;;1.23;;
14965;SDS011;7577;45.226;5.798;2023-05-17T15:32:10;3.30;;;1.40;;
14965;SDS011;7577;45.226;5.798;2023-05-17T15:34:40;2.33;;;1.37;;